sensor_id;sensor_type;location;lat;lon;timestamp;pressure;altitude;pressure_sealevel;temperature;humidity
84667;BME280;74896;42.518;23.712;2024-03-23T00:53:47;92149.84;;;-1.43;79.90
84667;BME280;74896;42.518;23.712;2024-03-23T00:56:13;92140.63;;;-1.44;80.43
84667;BME280;74896;42.518;23.712;2024-03-23T00:58:38;92139.69;;;-1.51;80.25
84667;BME280;74896;42.518;23.712;2024-03-23T01:01:03;92135.41;;;-1.51;79.93
84667;BME280;74896;42.518;23.712;2024-03-23T01:03:29;92137.47;;;-1.46;80.52
84667;BME280;74896;42.518;23.712;2024-03-23T01:06:02;92136.97;;;-1.50;80.84
84667;BME280;74896;42.518;23.712;2024-03-23T01:08:28;92140.94;;;-1.47;80.13
84667;BME280;74896;42.518;23.712;2024-03-23T01:10:58;92135.53;;;-1.44;79.08
84667;BME280;74896;42.518;23.712;2024-03-23T01:13:23;92139.72;;;-1.04;79.14
84667;BME280;74896;42.518;23.712;2024-03-23T01:15:50;92139.16;;;-1.22;78.80
84667;BME280;74896;42.518;23.712;2024-03-23T01:18:17;92133.13;;;-1.29;78.98
84667;BME280;74896;42.518;23.712;2024-03-23T01:20:43;92131.56;;;-1.38;78.70
84667;BME280;74896;42.518;23.712;2024-03-23T01:23:08;92131.09;;;-1.42;79.63
84667;BME280;74896;42.518;23.712;2024-03-23T01:25:33;92136.50;;;-1.45;79.68
84667;BME280;74896;42.518;23.712;2024-03-23T01:27:59;92132.88;;;-1.51;79.58
84667;BME280;74896;42.518;23.712;2024-03-23T01:30:24;92131.44;;;-1.53;79.99
84667;BME280;74896;42.518;23.712;2024-03-23T01:32:49;92131.44;;;-1.53;81.53
84667;BME280;74896;42.518;23.712;2024-03-23T01:35:15;92129.50;;;-1.43;81.32
84667;BME280;74896;42.518;23.712;2024-03-23T01:37:40;92131.75;;;-1.48;80.71
84667;BME280;74896;42.518;23.712;2024-03-23T01:40:06;92127.47;;;-1.56;81.04
84667;BME280;74896;42.518;23.712;2024-03-23T01:42:31;92122.38;;;-1.48;81.45
84667;BME280;74896;42.518;23.712;2024-03-23T01:44:57;92125.50;;;-1.37;80.05
84667;BME280;74896;42.518;23.712;2024-03-23T01:47:22;92118.56;;;-1.52;80.02
84667;BME280;74896;42.518;23.712;2024-03-23T01:49:48;92117.34;;;-1.64;80.64
84667;BME280;74896;42.518;23.712;2024-03-23T01:52:13;92111.00;;;-1.76;81.78
84667;BME280;74896;42.518;23.712;2024-03-23T01:54:40;92107.34;;;-1.81;82.27
84667;BME280;74896;42.518;23.712;2024-03-23T01:57:06;92103.38;;;-1.84;83.17
84667;BME280;74896;42.518;23.712;2024-03-23T01:59:32;92109.41;;;-1.69;82.71
84667;BME280;74896;42.518;23.712;2024-03-23T02:01:57;92111.00;;;-1.84;81.59
84667;BME280;74896;42.518;23.712;2024-03-23T02:04:22;92111.34;;;-1.95;83.14
84667;BME280;74896;42.518;23.712;2024-03-23T02:06:48;92105.13;;;-1.92;83.30
84667;BME280;74896;42.518;23.712;2024-03-23T02:09:14;92111.16;;;-1.85;82.72
84667;BME280;74896;42.518;23.712;2024-03-23T02:11:40;92110.22;;;-1.84;81.84
84667;BME280;74896;42.518;23.712;2024-03-23T02:14:05;92103.84;;;-1.88;81.82
84667;BME280;74896;42.518;23.712;2024-03-23T02:16:31;92106.88;;;-1.93;81.50
84667;BME280;74896;42.518;23.712;2024-03-23T02:18:56;92107.84;;;-2.02;81.37
84667;BME280;74896;42.518;23.712;2024-03-23T02:21:22;92106.75;;;-2.07;81.86
84667;BME280;74896;42.518;23.712;2024-03-23T02:23:47;92113.88;;;-2.11;82.08
84667;BME280;74896;42.518;23.712;2024-03-23T02:26:12;92112.16;;;-2.10;82.25
84667;BME280;74896;42.518;23.712;2024-03-23T02:28:39;92115.50;;;-2.10;82.82
84667;BME280;74896;42.518;23.712;2024-03-23T02:31:04;92114.66;;;-2.02;82.48
84667;BME280;74896;42.518;23.712;2024-03-23T02:33:30;92116.41;;;-1.95;83.19
84667;BME280;74896;42.518;23.712;2024-03-23T02:35:57;92112.75;;;-1.84;83.15
84667;BME280;74896;42.518;23.712;2024-03-23T02:38:22;92114.03;;;-1.88;81.88
84667;BME280;74896;42.518;23.712;2024-03-23T02:40:48;92112.75;;;-1.84;81.58
84667;BME280;74896;42.518;23.712;2024-03-23T02:43:13;92108.94;;;-1.80;81.17
84667;BME280;74896;42.518;23.712;2024-03-23T02:45:39;92107.19;;;-1.80;80.96
84667;BME280;74896;42.518;23.712;2024-03-23T02:48:04;92108.47;;;-1.76;80.69
84667;BME280;74896;42.518;23.712;2024-03-23T02:50:30;92111.94;;;-1.77;80.92
84667;BME280;74896;42.518;23.712;2024-03-23T02:52:55;92102.41;;;-1.75;80.82
84667;BME280;74896;42.518;23.712;2024-03-23T02:55:21;92107.16;;;-1.64;82.03
84667;BME280;74896;42.518;23.712;2024-03-23T02:57:47;92110.34;;;-1.62;80.68
84667;BME280;74896;42.518;23.712;2024-03-23T03:00:12;92109.53;;;-1.70;81.26
84667;BME280;74896;42.518;23.712;2024-03-23T03:02:38;92107.66;;;-1.76;80.77
84667;BME280;74896;42.518;23.712;2024-03-23T03:05:04;92099.06;;;-1.67;80.82
84667;BME280;74896;42.518;23.712;2024-03-23T03:07:31;92102.41;;;-1.67;80.77
84667;BME280;74896;42.518;23.712;2024-03-23T03:09:56;92104.75;;;-1.65;80.42
84667;BME280;74896;42.518;23.712;2024-03-23T03:12:22;92109.38;;;-1.61;80.29
84667;BME280;74896;42.518;23.712;2024-03-23T03:14:47;92101.06;;;-1.38;79.23
84667;BME280;74896;42.518;23.712;2024-03-23T03:17:13;92106.59;;;-1.35;79.10
84667;BME280;74896;42.518;23.712;2024-03-23T03:19:40;92103.78;;;-1.09;78.83
84667;BME280;74896;42.518;23.712;2024-03-23T03:22:05;92111.53;;;-0.95;77.33
84667;BME280;74896;42.518;23.712;2024-03-23T03:24:30;92112.72;;;-0.52;75.29
84667;BME280;74896;42.518;23.712;2024-03-23T03:26:56;92117.88;;;-0.37;74.31
84667;BME280;74896;42.518;23.712;2024-03-23T03:29:23;92110.97;;;-0.29;74.21
84667;BME280;74896;42.518;23.712;2024-03-23T03:31:48;92113.69;;;-0.30;73.77
84667;BME280;74896;42.518;23.712;2024-03-23T03:34:15;92112.59;;;-0.36;74.49
84667;BME280;74896;42.518;23.712;2024-03-23T03:36:40;92113.19;;;-0.48;74.57
84667;BME280;74896;42.518;23.712;2024-03-23T03:39:06;92111.28;;;-0.54;75.15
84667;BME280;74896;42.518;23.712;2024-03-23T03:41:32;92112.41;;;-0.80;75.53
84667;BME280;74896;42.518;23.712;2024-03-23T03:43:57;92115.03;;;-0.96;76.26
84667;BME280;74896;42.518;23.712;2024-03-23T03:46:27;92122.16;;;-0.91;76.08
84667;BME280;74896;42.518;23.712;2024-03-23T03:48:54;92114.72;;;-1.01;76.05
84667;BME280;74896;42.518;23.712;2024-03-23T03:51:19;92123.53;;;-1.11;76.43
84667;BME280;74896;42.518;23.712;2024-03-23T03:53:45;92117.69;;;-1.20;76.58
84667;BME280;74896;42.518;23.712;2024-03-23T03:56:10;92119.75;;;-1.23;77.10
84667;BME280;74896;42.518;23.712;2024-03-23T03:58:35;92114.84;;;-1.25;77.12
84667;BME280;74896;42.518;23.712;2024-03-23T04:01:01;92118.31;;;-1.26;77.64
84667;BME280;74896;42.518;23.712;2024-03-23T04:03:26;92118.63;;;-1.21;77.45
84667;BME280;74896;42.518;23.712;2024-03-23T04:05:55;92115.94;;;-1.27;77.89
84667;BME280;74896;42.518;23.712;2024-03-23T04:08:21;92123.94;;;-1.38;77.99
84667;BME280;74896;42.518;23.712;2024-03-23T04:10:46;92120.22;;;-1.20;77.53
84667;BME280;74896;42.518;23.712;2024-03-23T04:13:15;92119.94;;;-1.33;78.06
84667;BME280;74896;42.518;23.712;2024-03-23T04:15:40;92124.09;;;-1.40;78.14
84667;BME280;74896;42.518;23.712;2024-03-23T04:18:06;92129.84;;;-1.46;78.08
84667;BME280;74896;42.518;23.712;2024-03-23T04:20:31;92128.84;;;-1.37;77.92
84667;BME280;74896;42.518;23.712;2024-03-23T04:22:58;92123.50;;;-1.50;78.11
84667;BME280;74896;42.518;23.712;2024-03-23T04:25:23;92121.53;;;-1.40;78.54
84667;BME280;74896;42.518;23.712;2024-03-23T04:27:48;92127.00;;;-1.12;77.54
84667;BME280;74896;42.518;23.712;2024-03-23T04:30:14;92118.38;;;-0.95;76.78
84667;BME280;74896;42.518;23.712;2024-03-23T04:32:40;92121.16;;;-0.82;75.88
84667;BME280;74896;42.518;23.712;2024-03-23T04:35:07;92122.69;;;-0.73;75.82
84667;BME280;74896;42.518;23.712;2024-03-23T04:37:35;92122.22;;;-0.46;74.89
84667;BME280;74896;42.518;23.712;2024-03-23T04:40:01;92126.34;;;-0.22;74.17
84667;BME280;74896;42.518;23.712;2024-03-23T04:42:28;92127.28;;;0.22;72.17
84667;BME280;74896;42.518;23.712;2024-03-23T04:44:53;92121.56;;;0.20;72.09
84667;BME280;74896;42.518;23.712;2024-03-23T04:47:19;92119.47;;;0.24;71.83
84667;BME280;74896;42.518;23.712;2024-03-23T04:49:44;92124.56;;;0.24;71.75
84667;BME280;74896;42.518;23.712;2024-03-23T04:52:09;92131.25;;;0.25;71.75
84667;BME280;74896;42.518;23.712;2024-03-23T04:54:35;92127.91;;;0.24;73.54
84667;BME280;74896;42.518;23.712;2024-03-23T04:57:00;92130.03;;;0.35;73.03
84667;BME280;74896;42.518;23.712;2024-03-23T04:59:26;92125.38;;;0.53;71.64
84667;BME280;74896;42.518;23.712;2024-03-23T05:01:51;92124.72;;;0.89;69.81
84667;BME280;74896;42.518;23.712;2024-03-23T05:04:17;92127.94;;;1.12;69.85
84667;BME280;74896;42.518;23.712;2024-03-23T05:06:42;92127.97;;;1.48;68.06
84667;BME280;74896;42.518;23.712;2024-03-23T05:09:08;92122.91;;;1.90;65.88
84667;BME280;74896;42.518;23.712;2024-03-23T05:11:37;92126.81;;;2.07;65.13
84667;BME280;74896;42.518;23.712;2024-03-23T05:14:03;92125.44;;;2.32;64.71
84667;BME280;74896;42.518;23.712;2024-03-23T05:16:29;92123.16;;;2.71;63.55
84667;BME280;74896;42.518;23.712;2024-03-23T05:18:54;92125.47;;;2.94;62.74
84667;BME280;74896;42.518;23.712;2024-03-23T05:21:20;92122.19;;;3.13;62.60
84667;BME280;74896;42.518;23.712;2024-03-23T05:23:45;92122.88;;;3.28;63.92
84667;BME280;74896;42.518;23.712;2024-03-23T05:26:11;92124.72;;;3.47;62.77
84667;BME280;74896;42.518;23.712;2024-03-23T05:28:36;92120.84;;;3.71;61.24
84667;BME280;74896;42.518;23.712;2024-03-23T05:31:01;92126.78;;;3.78;62.89
84667;BME280;74896;42.518;23.712;2024-03-23T05:33:27;92127.31;;;3.47;62.31
84667;BME280;74896;42.518;23.712;2024-03-23T05:36:00;92127.88;;;3.09;64.05
84667;BME280;74896;42.518;23.712;2024-03-23T05:38:25;92123.00;;;3.14;64.02
84667;BME280;74896;42.518;23.712;2024-03-23T05:40:58;92127.97;;;3.22;65.76
84667;BME280;74896;42.518;23.712;2024-03-23T05:43:24;92124.63;;;3.28;63.56
84667;BME280;74896;42.518;23.712;2024-03-23T05:45:57;92130.63;;;3.48;63.50
84667;BME280;74896;42.518;23.712;2024-03-23T05:48:23;92131.16;;;3.91;64.64
84667;BME280;74896;42.518;23.712;2024-03-23T05:50:49;92127.88;;;4.30;62.42
84667;BME280;74896;42.518;23.712;2024-03-23T05:53:15;92119.19;;;4.57;58.56
84667;BME280;74896;42.518;23.712;2024-03-23T05:55:41;92120.56;;;4.66;59.33
84667;BME280;74896;42.518;23.712;2024-03-23T05:58:06;92116.19;;;4.79;57.78
84667;BME280;74896;42.518;23.712;2024-03-23T06:00:32;92114.53;;;5.11;57.80
84667;BME280;74896;42.518;23.712;2024-03-23T06:02:57;92123.06;;;5.12;57.20
84667;BME280;74896;42.518;23.712;2024-03-23T06:05:23;92118.09;;;5.17;56.90
84667;BME280;74896;42.518;23.712;2024-03-23T06:07:49;92115.84;;;5.40;54.48
84667;BME280;74896;42.518;23.712;2024-03-23T06:10:15;92119.56;;;5.57;57.13
84667;BME280;74896;42.518;23.712;2024-03-23T06:12:41;92115.88;;;5.91;55.38
84667;BME280;74896;42.518;23.712;2024-03-23T06:15:07;92112.53;;;6.15;54.42
84667;BME280;74896;42.518;23.712;2024-03-23T06:17:38;92111.22;;;6.37;53.25
84667;BME280;74896;42.518;23.712;2024-03-23T06:20:04;92112.28;;;6.79;54.73
84667;BME280;74896;42.518;23.712;2024-03-23T06:22:31;92113.69;;;6.99;51.78
84667;BME280;74896;42.518;23.712;2024-03-23T06:24:57;92112.50;;;7.20;51.60
84667;BME280;74896;42.518;23.712;2024-03-23T06:27:22;92111.53;;;7.15;50.75
84667;BME280;74896;42.518;23.712;2024-03-23T06:29:48;92110.06;;;7.43;52.16
84667;BME280;74896;42.518;23.712;2024-03-23T06:32:13;92115.91;;;7.68;53.22
84667;BME280;74896;42.518;23.712;2024-03-23T06:34:41;92118.81;;;8.20;53.43
84667;BME280;74896;42.518;23.712;2024-03-23T06:37:07;92114.44;;;8.50;50.50
84667;BME280;74896;42.518;23.712;2024-03-23T06:39:35;92111.38;;;9.06;50.81
84667;BME280;74896;42.518;23.712;2024-03-23T06:42:00;92110.88;;;9.55;48.70
84667;BME280;74896;42.518;23.712;2024-03-23T06:44:26;92109.94;;;9.73;47.30
84667;BME280;74896;42.518;23.712;2024-03-23T06:46:51;92104.78;;;10.29;45.57
84667;BME280;74896;42.518;23.712;2024-03-23T06:49:16;92108.38;;;10.40;43.45
84667;BME280;74896;42.518;23.712;2024-03-23T06:51:42;92120.69;;;9.93;45.98
84667;BME280;74896;42.518;23.712;2024-03-23T06:54:08;92112.13;;;9.53;45.15
84667;BME280;74896;42.518;23.712;2024-03-23T06:56:33;92110.56;;;9.05;46.63
84667;BME280;74896;42.518;23.712;2024-03-23T06:58:59;92111.59;;;9.04;47.09
84667;BME280;74896;42.518;23.712;2024-03-23T07:01:24;92112.16;;;8.95;45.85
84667;BME280;74896;42.518;23.712;2024-03-23T07:03:50;92105.34;;;8.47;47.90
84667;BME280;74896;42.518;23.712;2024-03-23T07:06:15;92108.66;;;9.01;47.24
84667;BME280;74896;42.518;23.712;2024-03-23T07:08:40;92111.81;;;9.14;47.64
84667;BME280;74896;42.518;23.712;2024-03-23T07:11:06;92104.50;;;9.23;49.38
84667;BME280;74896;42.518;23.712;2024-03-23T07:13:31;92101.94;;;9.11;48.21
84667;BME280;74896;42.518;23.712;2024-03-23T07:15:57;92105.50;;;9.22;49.04
84667;BME280;74896;42.518;23.712;2024-03-23T07:18:23;92107.09;;;8.77;50.09
84667;BME280;74896;42.518;23.712;2024-03-23T07:20:56;92100.09;;;8.77;51.99
84667;BME280;74896;42.518;23.712;2024-03-23T07:23:24;92103.81;;;8.81;48.29
84667;BME280;74896;42.518;23.712;2024-03-23T07:25:57;92097.63;;;9.05;50.17
84667;BME280;74896;42.518;23.712;2024-03-23T07:28:22;92096.38;;;9.31;47.16
84667;BME280;74896;42.518;23.712;2024-03-23T07:30:48;92097.56;;;9.63;46.67
84667;BME280;74896;42.518;23.712;2024-03-23T07:33:13;92085.56;;;9.57;46.39
84667;BME280;74896;42.518;23.712;2024-03-23T07:35:38;92089.59;;;9.53;45.38
84667;BME280;74896;42.518;23.712;2024-03-23T07:38:04;92089.50;;;9.88;47.49
84667;BME280;74896;42.518;23.712;2024-03-23T07:40:31;92087.50;;;10.18;45.74
84667;BME280;74896;42.518;23.712;2024-03-23T07:42:56;92090.06;;;10.46;47.86
84667;BME280;74896;42.518;23.712;2024-03-23T07:45:22;92076.78;;;10.26;45.80
84667;BME280;74896;42.518;23.712;2024-03-23T07:47:47;92078.94;;;10.79;45.11
84667;BME280;74896;42.518;23.712;2024-03-23T07:50:12;92082.72;;;11.05;44.10
84667;BME280;74896;42.518;23.712;2024-03-23T07:52:38;92082.31;;;10.96;44.81
84667;BME280;74896;42.518;23.712;2024-03-23T07:55:03;92081.63;;;10.84;46.07
84667;BME280;74896;42.518;23.712;2024-03-23T07:57:29;92078.38;;;11.10;43.39
84667;BME280;74896;42.518;23.712;2024-03-23T07:59:54;92080.78;;;11.17;42.00
84667;BME280;74896;42.518;23.712;2024-03-23T08:02:19;92079.84;;;11.23;43.73
84667;BME280;74896;42.518;23.712;2024-03-23T08:04:45;92076.31;;;11.51;43.71
84667;BME280;74896;42.518;23.712;2024-03-23T08:07:10;92075.53;;;11.50;38.97
84667;BME280;74896;42.518;23.712;2024-03-23T08:09:35;92076.31;;;11.51;42.54
84667;BME280;74896;42.518;23.712;2024-03-23T08:12:01;92076.06;;;11.52;39.91
84667;BME280;74896;42.518;23.712;2024-03-23T08:14:27;92077.88;;;11.68;40.35
84667;BME280;74896;42.518;23.712;2024-03-23T08:16:54;92083.06;;;11.68;40.84
84667;BME280;74896;42.518;23.712;2024-03-23T08:19:20;92072.41;;;12.40;42.04
84667;BME280;74896;42.518;23.712;2024-03-23T08:21:45;92071.94;;;12.43;37.47
84667;BME280;74896;42.518;23.712;2024-03-23T08:24:10;92075.09;;;12.23;37.68
84667;BME280;74896;42.518;23.712;2024-03-23T08:26:36;92074.84;;;11.98;36.47
84667;BME280;74896;42.518;23.712;2024-03-23T08:29:03;92082.28;;;11.89;38.66
84667;BME280;74896;42.518;23.712;2024-03-23T08:31:28;92075.53;;;11.50;38.49
84667;BME280;74896;42.518;23.712;2024-03-23T08:33:53;92076.50;;;12.09;39.83
84667;BME280;74896;42.518;23.712;2024-03-23T08:36:19;92073.97;;;12.14;39.06
84667;BME280;74896;42.518;23.712;2024-03-23T08:38:44;92071.38;;;12.14;39.27
84667;BME280;74896;42.518;23.712;2024-03-23T08:41:11;92074.03;;;12.19;38.83
84667;BME280;74896;42.518;23.712;2024-03-23T08:46:10;92072.69;;;12.17;37.15
84667;BME280;74896;42.518;23.712;2024-03-23T08:48:41;92062.78;;;12.14;37.75
84667;BME280;74896;42.518;23.712;2024-03-23T08:51:10;92060.47;;;12.44;39.34
84667;BME280;74896;42.518;23.712;2024-03-23T08:53:35;92057.13;;;12.48;35.69
84667;BME280;74896;42.518;23.712;2024-03-23T08:56:01;92060.19;;;12.40;42.30
84667;BME280;74896;42.518;23.712;2024-03-23T08:58:28;92055.84;;;12.19;38.53
84667;BME280;74896;42.518;23.712;2024-03-23T09:00:55;92052.16;;;12.42;40.33
84667;BME280;74896;42.518;23.712;2024-03-23T09:03:22;92054.31;;;11.96;38.23
84667;BME280;74896;42.518;23.712;2024-03-23T09:05:47;92056.78;;;11.86;41.05
84667;BME280;74896;42.518;23.712;2024-03-23T09:08:13;92056.38;;;11.73;42.57
84667;BME280;74896;42.518;23.712;2024-03-23T09:10:39;92052.91;;;11.89;39.28
84667;BME280;74896;42.518;23.712;2024-03-23T09:13:04;92048.19;;;11.64;38.70
84667;BME280;74896;42.518;23.712;2024-03-23T09:15:30;92044.44;;;12.25;42.17
84667;BME280;74896;42.518;23.712;2024-03-23T09:17:56;92035.44;;;12.64;39.66
84667;BME280;74896;42.518;23.712;2024-03-23T09:20:23;92039.59;;;12.34;38.18
84667;BME280;74896;42.518;23.712;2024-03-23T09:22:49;92034.88;;;12.04;38.83
84667;BME280;74896;42.518;23.712;2024-03-23T09:25:14;92027.09;;;12.31;36.88
84667;BME280;74896;42.518;23.712;2024-03-23T09:27:40;92024.63;;;12.78;39.30
84667;BME280;74896;42.518;23.712;2024-03-23T09:30:05;92019.94;;;12.80;41.35
84667;BME280;74896;42.518;23.712;2024-03-23T09:32:31;92014.03;;;13.31;38.48
84667;BME280;74896;42.518;23.712;2024-03-23T09:34:56;92014.38;;;13.50;34.50
84667;BME280;74896;42.518;23.712;2024-03-23T09:37:21;92007.41;;;13.65;35.58
84667;BME280;74896;42.518;23.712;2024-03-23T09:39:47;92008.50;;;13.69;35.21
84667;BME280;74896;42.518;23.712;2024-03-23T09:42:12;92007.31;;;12.98;34.01
84667;BME280;74896;42.518;23.712;2024-03-23T09:44:39;92005.00;;;13.02;33.08
84667;BME280;74896;42.518;23.712;2024-03-23T09:47:04;92000.16;;;12.79;33.15
84667;BME280;74896;42.518;23.712;2024-03-23T09:49:31;91994.00;;;13.31;35.21
84667;BME280;74896;42.518;23.712;2024-03-23T09:51:57;91993.03;;;13.48;33.98
84667;BME280;74896;42.518;23.712;2024-03-23T09:54:23;91987.84;;;13.53;33.55
84667;BME280;74896;42.518;23.712;2024-03-23T09:56:48;91982.03;;;13.35;34.32
84667;BME280;74896;42.518;23.712;2024-03-23T09:59:14;91983.41;;;13.53;33.37
84667;BME280;74896;42.518;23.712;2024-03-23T10:01:39;91973.78;;;13.59;34.15
84667;BME280;74896;42.518;23.712;2024-03-23T10:04:05;91967.31;;;13.71;32.10
84667;BME280;74896;42.518;23.712;2024-03-23T10:06:31;91956.63;;;13.63;33.19
84667;BME280;74896;42.518;23.712;2024-03-23T10:08:57;91965.44;;;13.57;34.45
84667;BME280;74896;42.518;23.712;2024-03-23T10:11:22;91966.84;;;13.17;33.31
84667;BME280;74896;42.518;23.712;2024-03-23T10:13:48;91961.59;;;13.79;33.40
84667;BME280;74896;42.518;23.712;2024-03-23T10:16:21;91962.13;;;13.71;32.57
84667;BME280;74896;42.518;23.712;2024-03-23T10:18:48;91955.38;;;13.95;31.23
84667;BME280;74896;42.518;23.712;2024-03-23T10:21:15;91952.06;;;14.30;32.77
84667;BME280;74896;42.518;23.712;2024-03-23T10:23:42;91947.91;;;14.49;32.94
84667;BME280;74896;42.518;23.712;2024-03-23T10:26:21;91941.09;;;14.28;32.12
84667;BME280;74896;42.518;23.712;2024-03-23T10:28:54;91947.78;;;13.74;30.23
84667;BME280;74896;42.518;23.712;2024-03-23T10:31:20;91941.09;;;14.48;30.26
84667;BME280;74896;42.518;23.712;2024-03-23T10:33:46;91934.59;;;14.71;32.79
84667;BME280;74896;42.518;23.712;2024-03-23T10:36:12;91934.84;;;14.44;32.15
84667;BME280;74896;42.518;23.712;2024-03-23T10:38:40;91929.31;;;14.00;31.18
84667;BME280;74896;42.518;23.712;2024-03-23T10:41:07;91929.38;;;14.71;32.98
84667;BME280;74896;42.518;23.712;2024-03-23T10:43:33;91935.88;;;14.48;31.07
84667;BME280;74896;42.518;23.712;2024-03-23T10:45:59;91924.41;;;14.64;29.83
84667;BME280;74896;42.518;23.712;2024-03-23T10:48:24;91925.19;;;14.80;30.66
84667;BME280;74896;42.518;23.712;2024-03-23T10:50:50;91915.56;;;14.35;32.35
84667;BME280;74896;42.518;23.712;2024-03-23T10:53:15;91918.16;;;14.30;31.84
84667;BME280;74896;42.518;23.712;2024-03-23T10:55:43;91911.09;;;14.26;35.04
84667;BME280;74896;42.518;23.712;2024-03-23T10:58:10;91912.09;;;14.85;30.93
84667;BME280;74896;42.518;23.712;2024-03-23T11:00:37;91909.78;;;14.68;32.33
84667;BME280;74896;42.518;23.712;2024-03-23T11:03:32;91899.38;;;14.53;31.23
84667;BME280;74896;42.518;23.712;2024-03-23T11:05:59;91897.00;;;14.72;35.29
84667;BME280;74896;42.518;23.712;2024-03-23T11:08:35;91890.97;;;14.76;32.11
84667;BME280;74896;42.518;23.712;2024-03-23T11:11:21;91880.81;;;14.60;33.70
84667;BME280;74896;42.518;23.712;2024-03-23T11:13:48;91880.00;;;14.80;31.09
84667;BME280;74896;42.518;23.712;2024-03-23T11:16:25;91884.50;;;14.59;32.44
84667;BME280;74896;42.518;23.712;2024-03-23T11:19:33;91880.59;;;14.51;30.58
84667;BME280;74896;42.518;23.712;2024-03-23T11:21:59;91869.13;;;14.32;29.51
84667;BME280;74896;42.518;23.712;2024-03-23T11:24:25;91867.25;;;14.68;31.70
84667;BME280;74896;42.518;23.712;2024-03-23T11:26:51;91863.66;;;15.28;31.71
84667;BME280;74896;42.518;23.712;2024-03-23T11:29:17;91863.06;;;15.51;30.72
84667;BME280;74896;42.518;23.712;2024-03-23T11:31:53;91857.31;;;15.39;29.19
84667;BME280;74896;42.518;23.712;2024-03-23T11:34:19;91862.06;;;15.32;29.29
84667;BME280;74896;42.518;23.712;2024-03-23T11:36:46;91846.50;;;15.12;29.92
84667;BME280;74896;42.518;23.712;2024-03-23T11:39:20;91846.09;;;14.74;32.31
84667;BME280;74896;42.518;23.712;2024-03-23T11:41:50;91843.56;;;14.39;28.06
84667;BME280;74896;42.518;23.712;2024-03-23T11:44:20;91840.19;;;14.34;28.93
84667;BME280;74896;42.518;23.712;2024-03-23T11:46:47;91840.69;;;14.16;29.89
84667;BME280;74896;42.518;23.712;2024-03-23T11:49:27;91838.63;;;14.33;31.60
84667;BME280;74896;42.518;23.712;2024-03-23T11:51:53;91830.28;;;14.31;29.03
84667;BME280;74896;42.518;23.712;2024-03-23T11:54:26;91824.72;;;14.62;30.66
84667;BME280;74896;42.518;23.712;2024-03-23T11:56:59;91824.69;;;14.72;29.67
84667;BME280;74896;42.518;23.712;2024-03-23T11:59:34;91814.00;;;14.69;33.23
84667;BME280;74896;42.518;23.712;2024-03-23T12:02:00;91810.06;;;14.76;29.81
84667;BME280;74896;42.518;23.712;2024-03-23T12:04:28;91807.75;;;14.65;28.99
84667;BME280;74896;42.518;23.712;2024-03-23T12:07:16;91810.34;;;14.75;29.03
84667;BME280;74896;42.518;23.712;2024-03-23T12:09:45;91807.75;;;14.65;29.09
84667;BME280;74896;42.518;23.712;2024-03-23T12:12:17;91790.31;;;14.55;27.30
84667;BME280;74896;42.518;23.712;2024-03-23T12:14:43;91793.41;;;14.57;28.21
84667;BME280;74896;42.518;23.712;2024-03-23T12:17:13;91785.78;;;14.81;28.65
84667;BME280;74896;42.518;23.712;2024-03-23T12:19:39;91785.88;;;14.51;28.40
84667;BME280;74896;42.518;23.712;2024-03-23T12:22:06;91786.34;;;14.73;28.71
84667;BME280;74896;42.518;23.712;2024-03-23T12:24:32;91775.31;;;15.35;32.78
84667;BME280;74896;42.518;23.712;2024-03-23T12:27:04;91776.78;;;15.56;30.72
84667;BME280;74896;42.518;23.712;2024-03-23T12:29:31;91775.81;;;15.42;29.42
84667;BME280;74896;42.518;23.712;2024-03-23T12:32:01;91768.97;;;15.07;30.45
84667;BME280;74896;42.518;23.712;2024-03-23T12:34:26;91766.56;;;15.11;29.67
84667;BME280;74896;42.518;23.712;2024-03-23T12:36:52;91769.00;;;15.41;30.78
84667;BME280;74896;42.518;23.712;2024-03-23T12:39:17;91756.34;;;15.63;32.43
84667;BME280;74896;42.518;23.712;2024-03-23T12:41:43;91750.81;;;15.98;26.58
84667;BME280;74896;42.518;23.712;2024-03-23T12:44:09;91747.97;;;15.61;28.31
84667;BME280;74896;42.518;23.712;2024-03-23T12:46:37;91747.81;;;15.42;28.47
84667;BME280;74896;42.518;23.712;2024-03-23T12:49:03;91748.25;;;15.21;28.92
84667;BME280;74896;42.518;23.712;2024-03-23T12:51:28;91735.47;;;15.19;28.09
84667;BME280;74896;42.518;23.712;2024-03-23T12:53:54;91739.16;;;15.08;29.76
84667;BME280;74896;42.518;23.712;2024-03-23T12:56:19;91731.44;;;15.32;30.60
84667;BME280;74896;42.518;23.712;2024-03-23T12:58:45;91732.09;;;14.60;29.45
84667;BME280;74896;42.518;23.712;2024-03-23T13:01:10;91725.84;;;14.66;29.13
84667;BME280;74896;42.518;23.712;2024-03-23T13:03:35;91724.97;;;14.81;28.57
84667;BME280;74896;42.518;23.712;2024-03-23T13:06:01;91727.94;;;14.64;28.82
84667;BME280;74896;42.518;23.712;2024-03-23T13:08:26;91722.78;;;14.98;29.86
84667;BME280;74896;42.518;23.712;2024-03-23T13:10:52;91718.44;;;14.83;28.71
84667;BME280;74896;42.518;23.712;2024-03-23T13:13:18;91699.25;;;14.59;29.70
84667;BME280;74896;42.518;23.712;2024-03-23T13:15:52;91709.41;;;14.55;29.74
84667;BME280;74896;42.518;23.712;2024-03-23T13:18:17;91706.81;;;14.55;30.17
84667;BME280;74896;42.518;23.712;2024-03-23T13:20:43;91697.94;;;14.61;30.66
84667;BME280;74896;42.518;23.712;2024-03-23T13:23:08;91693.03;;;14.45;29.82
84667;BME280;74896;42.518;23.712;2024-03-23T13:25:34;91693.63;;;14.86;29.95
84667;BME280;74896;42.518;23.712;2024-03-23T13:27:59;91685.22;;;14.94;30.67
84667;BME280;74896;42.518;23.712;2024-03-23T13:30:26;91682.06;;;14.97;30.86
84667;BME280;74896;42.518;23.712;2024-03-23T13:32:51;91679.06;;;15.18;29.49
84667;BME280;74896;42.518;23.712;2024-03-23T13:35:17;91679.34;;;14.73;32.27
84667;BME280;74896;42.518;23.712;2024-03-23T13:37:43;91682.75;;;14.68;31.49
84667;BME280;74896;42.518;23.712;2024-03-23T13:40:08;91682.94;;;14.87;31.45
84667;BME280;74896;42.518;23.712;2024-03-23T13:42:34;91679.28;;;14.78;29.21
84667;BME280;74896;42.518;23.712;2024-03-23T13:44:59;91677.63;;;14.97;28.35